Time;durP1;ratioP1;P1;durP2;ratioP2;P2;SDS_P1;SDS_P2;PMS_P1;PMS_P2;Temp;Humidity;BMP_temperature;BMP_pressure;BME280_temperature;BME280_humidity;BME280_pressure;Samples;Min_cycle;Max_cycle;Signal;HPM_P1;HPM_P2
2023/08/15 00:01:09;;;;;;;5.63;4.72;;;17.70;99.90;;;;;;4803731;29;20490;-94
2023/08/15 00:03:34;;;;;;;5.07;4.38;;;17.70;99.90;;;;;;4820713;29;20042;-91
2023/08/15 00:06:00;;;;;;;8.35;4.43;;;17.60;99.90;;;;;;4814545;29;20096;-90
2023/08/15 00:08:26;;;;;;;7.57;4.80;;;17.50;99.90;;;;;;4813462;29;20081;-87
2023/08/15 00:10:51;;;;;;;5.93;4.50;;;17.50;99.90;;;;;;4812533;29;20049;-88
2023/08/15 00:13:17;;;;;;;9.50;4.75;;;17.50;99.90;;;;;;4813283;29;20077;-91
2023/08/15 00:15:43;;;;;;;5.25;4.43;;;17.50;99.90;;;;;;4828690;29;20109;-91
2023/08/15 00:18:09;;;;;;;5.50;3.97;;;17.50;99.90;;;;;;4836359;29;20041;-92
2023/08/15 00:20:34;;;;;;;4.93;4.28;;;17.40;99.90;;;;;;4835817;29;20038;-91
2023/08/15 00:23:00;;;;;;;4.90;4.35;;;17.40;99.90;;;;;;4808078;29;20050;-91
2023/08/15 00:25:26;;;;;;;4.68;4.13;;;17.30;99.90;;;;;;4831045;29;20037;-91
2023/08/15 00:27:52;;;;;;;5.45;4.20;;;17.20;99.90;;;;;;4802934;29;20568;-91
2023/08/15 00:30:17;;;;;;;7.32;4.60;;;17.20;99.90;;;;;;4817433;29;20137;-91
2023/08/15 00:32:43;;;;;;;7.03;5.05;;;17.20;99.90;;;;;;4818730;29;20054;-91
2023/08/15 00:35:10;;;;;;;6.75;4.63;;;17.10;99.90;;;;;;4837011;29;20470;-93
2023/08/15 00:37:36;;;;;;;6.80;5.00;;;17.10;99.90;;;;;;4828229;29;20041;-93
2023/08/15 00:40:02;;;;;;;6.53;5.30;;;17.00;99.90;;;;;;4814672;29;20137;-93
2023/08/15 00:42:28;;;;;;;6.20;5.27;;;17.10;99.90;;;;;;4832198;29;20053;-90
2023/08/15 00:44:53;;;;;;;7.10;5.40;;;17.10;99.90;;;;;;4828561;29;20064;-91
2023/08/15 00:47:20;;;;;;;7.50;5.18;;;17.10;99.90;;;;;;4847457;29;20639;-91
2023/08/15 00:49:47;;;;;;;6.65;4.90;;;17.10;99.90;;;;;;4832127;29;20086;-91
2023/08/15 00:52:14;;;;;;;6.25;5.30;;;17.10;99.90;;;;;;4834256;29;20041;-89
2023/08/15 00:54:43;;;;;;;6.75;5.15;;;17.10;99.90;;;;;;4827296;29;20509;-89
2023/08/15 00:57:10;;;;;;;7.90;4.65;;;17.10;99.90;;;;;;4829504;29;20044;-92
2023/08/15 00:59:36;;;;;;;7.60;5.75;;;17.20;99.90;;;;;;4843983;29;20044;-94
2023/08/15 01:02:02;;;;;;;6.17;4.97;;;17.20;99.90;;;;;;4802140;29;20110;-92
2023/08/15 01:04:29;;;;;;;5.75;5.15;;;17.10;99.90;;;;;;4783808;29;20462;-93
2023/08/15 01:06:55;;;;;;;7.45;5.03;;;17.20;99.90;;;;;;4815007;29;20102;-95
2023/08/15 01:09:21;;;;;;;6.90;5.30;;;17.10;99.90;;;;;;4815134;29;20046;-92
2023/08/15 01:12:20;;;;;;;5.85;4.85;;;17.10;99.90;;;;;;4800103;29;20041;-92
2023/08/15 01:14:49;;;;;;;;;;;17.10;99.90;;;;;;4811305;29;20117;-89
2023/08/15 01:17:23;;;;;;;5.00;4.50;;;17.10;99.90;;;;;;4828177;29;19984;-92
2023/08/15 01:19:52;;;;;;;6.45;5.30;;;17.10;99.90;;;;;;4828274;29;20045;-91
2023/08/15 01:22:23;;;;;;;6.95;4.70;;;17.10;99.90;;;;;;4824950;29;20375;-91
2023/08/15 01:24:49;;;;;;;7.55;5.22;;;17.20;99.90;;;;;;4820930;29;20048;-91
2023/08/15 01:27:15;;;;;;;9.82;5.38;;;17.20;99.90;;;;;;4802309;29;20045;-91
2023/08/15 01:29:41;;;;;;;6.85;5.30;;;17.20;99.90;;;;;;4817721;29;20565;-90
2023/08/15 01:32:31;;;;;;;7.15;5.18;;;17.20;99.90;;;;;;4821685;29;20054;-90
2023/08/15 01:35:21;;;;;;;6.13;4.60;;;17.10;99.90;;;;;;4841599;29;20053;-91
2023/08/15 01:37:55;;;;;;;7.60;4.88;;;17.10;99.90;;;;;;4824859;29;20049;-92
2023/08/15 01:40:23;;;;;;;9.45;5.15;;;17.10;99.90;;;;;;4831512;29;20128;-91
2023/08/15 01:42:50;;;;;;;7.00;5.10;;;17.10;99.90;;;;;;4843499;29;20049;-90
2023/08/15 01:45:16;;;;;;;;;;;17.10;99.90;;;;;;4812594;29;20057;-91
2023/08/15 01:47:42;;;;;;;6.55;4.68;;;17.00;99.90;;;;;;4830802;29;19920;-91
2023/08/15 01:50:08;;;;;;;5.75;4.80;;;17.00;99.90;;;;;;4787629;29;20067;-93
2023/08/15 01:52:36;;;;;;;6.60;5.38;;;17.00;99.90;;;;;;4803842;29;20046;-96
2023/08/15 01:55:02;;;;;;;6.60;5.13;;;16.90;99.90;;;;;;4820029;29;20042;-93
2023/08/15 01:57:28;;;;;;;7.15;4.90;;;16.90;99.90;;;;;;4834610;29;20069;-89
2023/08/15 01:59:57;;;;;;;7.68;5.25;;;16.90;99.90;;;;;;4819646;29;20045;-91
2023/08/15 02:02:22;;;;;;;9.10;5.63;;;16.90;99.90;;;;;;4835011;29;21260;-91
2023/08/15 02:04:48;;;;;;;5.78;5.05;;;16.90;99.90;;;;;;4855553;29;20094;-92
2023/08/15 02:07:14;;;;;;;4.82;4.40;;;16.90;99.90;;;;;;4852166;29;20113;-94
2023/08/15 02:09:39;;;;;;;7.28;5.35;;;16.90;99.90;;;;;;4802824;29;20044;-91
2023/08/15 02:12:05;;;;;;;7.40;5.32;;;16.90;99.90;;;;;;4847733;29;20045;-91
2023/08/15 02:14:31;;;;;;;7.18;5.30;;;16.90;99.90;;;;;;4811926;29;20261;-91
2023/08/15 02:16:57;;;;;;;6.32;5.07;;;16.80;99.90;;;;;;4825229;29;20120;-92
2023/08/15 02:19:22;;;;;;;7.32;4.82;;;16.90;99.90;;;;;;4799265;29;20129;-91
2023/08/15 02:21:48;;;;;;;8.20;5.10;;;16.80;99.90;;;;;;4818302;29;20101;-92
2023/08/15 02:24:14;;;;;;;6.30;5.18;;;16.80;99.90;;;;;;4801403;29;20584;-92
2023/08/15 02:26:39;;;;;;;7.57;5.00;;;16.80;99.90;;;;;;4816816;29;20102;-94
2023/08/15 02:29:05;;;;;;;6.95;5.13;;;16.70;99.90;;;;;;4797866;29;20042;-92
2023/08/15 02:31:31;;;;;;;6.25;5.57;;;16.70;99.90;;;;;;4797438;29;20053;-90
2023/08/15 02:33:57;;;;;;;6.40;5.47;;;16.70;99.90;;;;;;4835520;29;20084;-89
2023/08/15 02:36:22;;;;;;;7.65;5.88;;;16.70;99.90;;;;;;4802672;29;20444;-89
2023/08/15 02:38:48;;;;;;;7.80;5.35;;;16.80;99.90;;;;;;4814991;29;20041;-88
2023/08/15 02:41:14;;;;;;;7.82;6.35;;;16.80;99.90;;;;;;4846783;29;20374;-86
2023/08/15 02:43:40;;;;;;;10.68;6.30;;;16.80;99.90;;;;;;4820865;29;20100;-87
2023/08/15 02:46:06;;;;;;;8.25;6.00;;;16.90;99.90;;;;;;4842714;29;20145;-86
2023/08/15 02:48:31;;;;;;;9.13;5.65;;;16.90;99.90;;;;;;4814099;29;20705;-85
2023/08/15 02:50:57;;;;;;;6.57;5.93;;;16.90;99.90;;;;;;4849290;29;20052;-86
2023/08/15 02:53:23;;;;;;;8.20;6.05;;;16.90;99.90;;;;;;4827738;29;20050;-86
2023/08/15 02:55:52;;;;;;;7.30;5.50;;;17.00;99.90;;;;;;4816680;29;20033;-86
2023/08/15 02:58:18;;;;;;;7.78;5.60;;;17.00;99.90;;;;;;4803495;29;20053;-84
2023/08/15 03:00:44;;;;;;;8.15;5.75;;;17.00;99.90;;;;;;4829320;29;20049;-86
2023/08/15 03:03:09;;;;;;;8.02;5.55;;;17.10;99.90;;;;;;4808165;29;20049;-86
2023/08/15 03:05:39;;;;;;;10.32;5.82;;;17.20;99.90;;;;;;4797990;29;20058;-87
2023/08/15 03:08:04;;;;;;;8.07;5.93;;;17.20;99.90;;;;;;4830973;29;20132;-91
2023/08/15 03:10:32;;;;;;;9.00;5.75;;;17.20;99.90;;;;;;4830088;29;20794;-87
2023/08/15 03:12:58;;;;;;;6.75;5.90;;;17.30;99.90;;;;;;4805847;29;20037;-84
2023/08/15 03:15:24;;;;;;;7.53;5.85;;;17.30;99.90;;;;;;4842184;29;20041;-86
2023/08/15 03:17:51;;;;;;;9.38;6.35;;;17.30;99.90;;;;;;4846413;29;20125;-86
2023/08/15 03:20:17;;;;;;;11.82;6.35;;;17.30;99.90;;;;;;4852361;29;20064;-86
2023/08/15 03:22:43;;;;;;;8.57;6.25;;;17.30;99.90;;;;;;4813667;29;20045;-87
2023/08/15 03:25:09;;;;;;;7.63;6.00;;;17.50;99.90;;;;;;4845374;29;20129;-85
2023/08/15 03:27:35;;;;;;;8.93;6.70;;;17.30;99.90;;;;;;4830691;29;20101;-86
2023/08/15 03:30:00;;;;;;;9.48;6.75;;;17.30;99.90;;;;;;4813061;29;20076;-88
2023/08/15 03:32:26;;;;;;;10.10;5.90;;;17.40;99.90;;;;;;4812204;29;20046;-87
2023/08/15 03:34:52;;;;;;;7.43;6.20;;;17.40;99.90;;;;;;4811200;29;20041;-89
2023/08/15 03:37:18;;;;;;;7.35;5.90;;;17.40;99.90;;;;;;4812804;29;20714;-86
2023/08/15 03:39:43;;;;;;;7.85;5.47;;;17.40;99.90;;;;;;4795126;29;20046;-87
2023/08/15 03:42:09;;;;;;;6.85;5.20;;;17.40;99.90;;;;;;4826393;29;20532;-87
2023/08/15 03:44:35;;;;;;;9.82;5.72;;;17.40;99.90;;;;;;4811416;29;20050;-87
2023/08/15 03:47:00;;;;;;;7.63;5.53;;;17.40;99.90;;;;;;4795805;29;20037;-88
2023/08/15 03:49:26;;;;;;;7.20;5.25;;;17.50;99.90;;;;;;4827169;29;20050;-90
2023/08/15 03:51:52;;;;;;;6.95;5.47;;;17.50;99.90;;;;;;4811908;29;20056;-87
2023/08/15 03:54:17;;;;;;;7.15;5.55;;;17.60;99.90;;;;;;4809781;29;20107;-88
2023/08/15 03:56:43;;;;;;;6.75;5.57;;;17.60;99.90;;;;;;4843235;29;20124;-88
2023/08/15 03:59:09;;;;;;;7.15;5.65;;;17.60;99.90;;;;;;4811396;29;20042;-88
2023/08/15 04:01:35;;;;;;;9.23;5.47;;;17.70;99.90;;;;;;4813059;29;20050;-87
2023/08/15 04:04:00;;;;;;;6.82;5.20;;;17.70;99.90;;;;;;4835077;29;20106;-88
2023/08/15 04:06:26;;;;;;;7.63;5.85;;;17.60;99.90;;;;;;4841744;29;20042;-88
2023/08/15 04:08:52;;;;;;;6.90;5.28;;;17.60;99.90;;;;;;4828682;29;20054;-88
2023/08/15 04:11:19;;;;;;;6.68;5.32;;;17.70;99.90;;;;;;4799143;29;20045;-88
2023/08/15 04:13:44;;;;;;;;;;;17.70;99.90;;;;;;4813133;29;20562;-88
2023/08/15 04:16:10;;;;;;;5.63;5.07;;;17.70;99.90;;;;;;4828953;29;19920;-89
2023/08/15 04:18:36;;;;;;;5.63;5.07;;;17.70;99.90;;;;;;4828564;29;20080;-88
2023/08/15 04:21:02;;;;;;;7.07;5.05;;;17.70;99.90;;;;;;4826940;29;20052;-88
2023/08/15 04:23:27;;;;;;;8.38;5.40;;;17.70;99.90;;;;;;4792757;29;20073;-88
2023/08/15 04:25:53;;;;;;;9.40;5.95;;;17.70;99.90;;;;;;4813174;29;20086;-87
2023/08/15 04:28:19;;;;;;;7.13;5.53;;;17.70;99.90;;;;;;4828570;29;20057;-88
2023/08/15 04:30:45;;;;;;;7.95;6.00;;;17.70;99.90;;;;;;4828853;29;20049;-87
2023/08/15 04:33:11;;;;;;;6.47;5.15;;;17.70;99.90;;;;;;4801538;29;20041;-88
2023/08/15 04:35:39;;;;;;;6.78;5.47;;;17.80;99.90;;;;;;4794734;29;20070;-88
2023/08/15 04:38:05;;;;;;;7.95;5.30;;;17.80;99.90;;;;;;4826654;29;20088;-88
2023/08/15 04:40:31;;;;;;;6.78;5.88;;;17.80;99.90;;;;;;4827918;29;20069;-87
2023/08/15 04:42:57;;;;;;;8.50;5.70;;;17.80;99.90;;;;;;4846895;29;20046;-87
2023/08/15 04:45:23;;;;;;;7.43;5.28;;;17.80;99.90;;;;;;4832972;29;20072;-88
2023/08/15 04:47:49;;;;;;;7.20;5.70;;;17.80;99.90;;;;;;4811617;29;20046;-87
2023/08/15 04:50:14;;;;;;;6.78;5.28;;;17.80;99.90;;;;;;4827530;29;20485;-87
2023/08/15 04:52:40;;;;;;;7.00;5.20;;;17.80;99.90;;;;;;4825321;29;20081;-87
2023/08/15 04:55:07;;;;;;;6.85;5.90;;;17.90;99.90;;;;;;4837970;29;20511;-88
2023/08/15 04:57:32;;;;;;;7.20;6.05;;;17.90;99.90;;;;;;4828945;29;20049;-88
2023/08/15 04:59:58;;;;;;;7.07;6.00;;;17.90;99.90;;;;;;4830562;29;20421;-87
2023/08/15 05:02:24;;;;;;;8.43;6.28;;;17.90;99.90;;;;;;4830969;29;20045;-87
2023/08/15 05:04:49;;;;;;;7.90;5.93;;;17.90;99.90;;;;;;4811847;29;20045;-87
2023/08/15 05:07:15;;;;;;;8.20;6.07;;;17.90;99.90;;;;;;4801080;29;20105;-87
2023/08/15 05:09:42;;;;;;;8.82;5.63;;;18.00;99.90;;;;;;4799680;29;20545;-87
2023/08/15 05:12:08;;;;;;;6.35;5.20;;;18.00;99.90;;;;;;4816596;29;20465;-87
2023/08/15 05:14:34;;;;;;;10.35;6.03;;;18.00;99.90;;;;;;4838541;29;20045;-88
2023/08/15 05:17:00;;;;;;;7.68;5.25;;;18.00;99.90;;;;;;4832177;29;20045;-87
2023/08/15 05:19:25;;;;;;;6.65;5.05;;;18.10;99.90;;;;;;4817326;29;20105;-87
2023/08/15 05:21:51;;;;;;;6.80;4.95;;;18.10;99.90;;;;;;4819103;29;20045;-86
2023/08/15 05:24:19;;;;;;;8.25;4.22;;;18.10;99.90;;;;;;4829895;29;20046;-87
2023/08/15 05:26:44;;;;;;;6.15;4.32;;;18.10;99.90;;;;;;4812229;29;20077;-86
2023/08/15 05:29:10;;;;;;;5.53;4.38;;;18.10;99.90;;;;;;4818623;29;20139;-86
2023/08/15 05:31:36;;;;;;;7.15;4.00;;;18.20;99.90;;;;;;4829059;29;20105;-87
2023/08/15 05:34:01;;;;;;;5.55;3.90;;;18.20;99.90;;;;;;4814588;29;20042;-88
2023/08/15 05:36:27;;;;;;;5.90;3.78;;;18.20;99.90;;;;;;4831549;29;20049;-88
2023/08/15 05:38:53;;;;;;;5.60;3.90;;;18.20;99.90;;;;;;4830237;29;20485;-85
2023/08/15 05:41:18;;;;;;;6.10;3.95;;;18.30;99.90;;;;;;4849810;29;20060;-92
2023/08/15 05:43:44;;;;;;;6.68;4.18;;;18.30;99.90;;;;;;4839829;29;20055;-88
2023/08/15 05:46:10;;;;;;;4.40;3.42;;;18.30;99.90;;;;;;4836632;29;20132;-90
2023/08/15 05:48:37;;;;;;;4.85;3.13;;;18.30;99.90;;;;;;4806907;29;20054;-90
2023/08/15 05:51:02;;;;;;;5.88;3.33;;;18.40;99.90;;;;;;4849426;29;20060;-88
2023/08/15 05:53:28;;;;;;;6.65;3.58;;;18.40;99.90;;;;;;4828609;29;20058;-92
2023/08/15 05:55:54;;;;;;;5.57;3.17;;;18.50;99.90;;;;;;4833213;29;20477;-88
2023/08/15 05:58:20;;;;;;;6.45;3.65;;;18.70;99.90;;;;;;4846103;29;20046;-88
2023/08/15 06:00:45;;;;;;;5.47;3.38;;;19.00;99.90;;;;;;4830969;29;20080;-89
2023/08/15 06:03:11;;;;;;;5.20;3.60;;;19.20;99.90;;;;;;4819626;29;20050;-88
2023/08/15 06:05:37;;;;;;;7.60;3.72;;;19.40;99.90;;;;;;4795816;29;20494;-87
2023/08/15 06:08:03;;;;;;;5.38;3.55;;;19.60;99.90;;;;;;4798014;29;20049;-87
2023/08/15 06:10:29;;;;;;;4.97;3.20;;;19.70;99.90;;;;;;4853367;29;20109;-88
2023/08/15 06:12:54;;;;;;;7.60;3.38;;;19.70;99.90;;;;;;4835138;29;20053;-88
2023/08/15 06:15:20;;;;;;;4.20;3.03;;;19.60;99.90;;;;;;4833176;29;20528;-86
2023/08/15 06:17:46;;;;;;;6.82;3.25;;;19.50;99.90;;;;;;4821254;29;20037;-87
2023/08/15 06:20:11;;;;;;;6.78;2.90;;;19.50;99.90;;;;;;4834792;29;20064;-87
2023/08/15 06:22:37;;;;;;;5.15;2.78;;;19.40;99.90;;;;;;4829898;29;20042;-87
2023/08/15 06:25:03;;;;;;;7.32;3.15;;;19.40;99.90;;;;;;4829688;29;20053;-86
2023/08/15 06:27:29;;;;;;;8.07;3.10;;;19.40;99.90;;;;;;4831231;29;20048;-86
2023/08/15 06:29:54;;;;;;;4.43;2.53;;;19.40;99.90;;;;;;4822682;29;20072;-87
2023/08/15 06:32:28;;;;;;;6.97;3.00;;;19.50;99.90;;;;;;4814132;29;20541;-86
2023/08/15 06:34:54;;;;;;;5.25;2.92;;;19.60;99.90;;;;;;4831081;29;20067;-85
2023/08/15 06:37:20;;;;;;;6.93;2.70;;;19.70;99.90;;;;;;4828815;29;20042;-87
2023/08/15 06:39:46;;;;;;;4.80;2.53;;;19.70;99.90;;;;;;4829491;29;20041;-86
2023/08/15 06:42:12;;;;;;;5.05;2.33;;;19.70;99.90;;;;;;4845178;29;20540;-87
2023/08/15 06:44:38;;;;;;;4.22;2.60;;;19.80;99.90;;;;;;4829508;29;20405;-86
2023/08/15 06:47:04;;;;;;;6.13;2.83;;;19.90;99.90;;;;;;4844036;29;20048;-89
2023/08/15 06:49:30;;;;;;;4.03;2.20;;;20.40;99.90;;;;;;4831931;29;20041;-88
2023/08/15 06:51:55;;;;;;;4.03;2.53;;;20.80;99.90;;;;;;4827089;29;20042;-86
2023/08/15 06:54:21;;;;;;;6.57;2.17;;;21.00;99.90;;;;;;4822637;29;20045;-88
2023/08/15 06:56:47;;;;;;;4.80;2.30;;;21.20;99.90;;;;;;4821233;29;20042;-88
2023/08/15 06:59:12;;;;;;;6.07;2.05;;;21.30;99.90;;;;;;4818168;29;20056;-88
2023/08/15 07:01:38;;;;;;;7.40;2.15;;;21.30;99.90;;;;;;4849104;29;20038;-86
2023/08/15 07:04:04;;;;;;;5.88;2.42;;;21.20;99.90;;;;;;4805469;29;20733;-89
2023/08/15 07:06:30;;;;;;;5.65;2.28;;;21.10;99.90;;;;;;4821642;29;20409;-88
2023/08/15 07:08:55;;;;;;;4.05;2.13;;;21.00;99.90;;;;;;4831234;29;20511;-90
2023/08/15 07:11:21;;;;;;;7.03;2.30;;;21.10;99.90;;;;;;4818025;29;20060;-91
2023/08/15 07:13:47;;;;;;;5.03;2.33;;;22.10;99.90;;;;;;4830692;29;20053;-89
2023/08/15 07:16:12;;;;;;;4.03;2.22;;;23.30;99.90;;;;;;4800287;29;20052;-88
2023/08/15 07:18:38;;;;;;;5.95;2.15;;;24.40;99.90;;;;;;4840240;29;20044;-87
2023/08/15 07:21:04;;;;;;;4.40;2.30;;;25.40;99.90;;;;;;4839406;29;20128;-88
2023/08/15 07:23:30;;;;;;;4.43;2.55;;;26.30;99.90;;;;;;4829895;29;20520;-88
2023/08/15 07:25:56;;;;;;;5.03;2.20;;;26.80;99.90;;;;;;4812093;29;20042;-90
2023/08/15 07:28:22;;;;;;;6.10;2.43;;;27.40;99.90;;;;;;4827057;29;20048;-91
2023/08/15 07:30:48;;;;;;;5.90;2.53;;;27.80;99.90;;;;;;4852240;29;20087;-85
2023/08/15 07:33:15;;;;;;;5.05;1.92;;;28.30;99.90;;;;;;4840125;29;20036;-88
2023/08/15 07:35:41;;;;;;;4.28;2.00;;;28.60;99.90;;;;;;4833057;29;20052;-86
2023/08/15 07:38:07;;;;;;;;;;;28.80;99.90;;;;;;4833434;29;20053;-87
2023/08/15 07:40:33;;;;;;;4.25;2.03;;;28.60;99.90;;;;;;4829079;29;19924;-91
2023/08/15 07:42:59;;;;;;;4.43;1.83;;;28.90;99.90;;;;;;4814657;29;20139;-89
2023/08/15 07:45:25;;;;;;;4.70;1.90;;;29.00;99.90;;;;;;4829253;29;20053;-87
2023/08/15 07:47:56;;;;;;;4.27;1.80;;;29.20;99.90;;;;;;4836637;29;20516;-86
2023/08/15 07:50:27;;;;;;;4.70;1.90;;;29.40;99.90;;;;;;4814054;29;20556;-88
2023/08/15 07:52:54;;;;;;;3.50;2.00;;;29.10;99.90;;;;;;4825300;29;20042;-86
2023/08/15 07:55:20;;;;;;;6.40;1.63;;;28.60;99.90;;;;;;4846230;29;20112;-88
2023/08/15 07:57:46;;;;;;;;;;;27.70;99.90;;;;;;4841819;29;20173;-87
2023/08/15 08:00:15;;;;;;;5.22;1.60;;;26.90;99.90;;;;;;4812435;29;20014;-87
2023/08/15 08:02:43;;;;;;;3.17;1.13;;;26.50;99.90;;;;;;4825795;29;20052;-85
2023/08/15 08:05:09;;;;;;;2.92;1.20;;;26.40;99.90;;;;;;4827653;29;20041;-87
2023/08/15 08:07:36;;;;;;;3.45;1.50;;;26.20;99.90;;;;;;4834664;29;20046;-88
2023/08/15 08:10:02;;;;;;;3.25;1.30;;;26.20;99.90;;;;;;4831982;29;20048;-87
2023/08/15 08:12:29;;;;;;;3.72;1.08;;;26.10;99.90;;;;;;4830978;29;20105;-86
2023/08/15 08:14:55;;;;;;;4.35;1.20;;;26.00;99.90;;;;;;4818278;29;20049;-89
2023/08/15 08:17:21;;;;;;;5.90;1.80;;;25.60;99.90;;;;;;4812518;29;20064;-87
2023/08/15 08:19:47;;;;;;;3.20;0.93;;;25.80;99.90;;;;;;4813714;29;20731;-88
2023/08/15 08:22:13;;;;;;;4.27;1.30;;;26.30;99.90;;;;;;4825970;29;20213;-85
2023/08/15 08:24:39;;;;;;;4.77;1.20;;;26.70;99.90;;;;;;4823060;29;20128;-86
2023/08/15 08:27:05;;;;;;;3.83;1.33;;;27.00;99.90;;;;;;4810156;29;20042;-85
2023/08/15 08:29:30;;;;;;;3.27;1.07;;;27.40;99.90;;;;;;4812309;29;20045;-84
2023/08/15 08:31:56;;;;;;;2.13;1.00;;;27.70;99.90;;;;;;4844497;29;20516;-86
2023/08/15 08:34:22;;;;;;;3.63;1.03;;;27.50;99.90;;;;;;4851824;29;20049;-88
2023/08/15 08:36:48;;;;;;;3.73;0.83;;;27.20;99.90;;;;;;4811371;29;20486;-84
2023/08/15 08:39:13;;;;;;;1.77;0.80;;;26.60;99.90;;;;;;4795677;29;20136;-88
2023/08/15 08:41:39;;;;;;;3.50;1.13;;;26.00;99.90;;;;;;4828737;29;20125;-89
2023/08/15 08:44:06;;;;;;;2.83;0.80;;;25.40;99.90;;;;;;4834383;29;20493;-86
2023/08/15 08:46:33;;;;;;;2.47;0.70;;;25.00;99.90;;;;;;4811063;29;20062;-86
2023/08/15 08:49:00;;;;;;;2.28;0.80;;;24.70;99.90;;;;;;4829251;29;20051;-87
2023/08/15 08:51:27;;;;;;;2.80;1.05;;;24.70;99.90;;;;;;4813149;29;20128;-87
2023/08/15 08:53:53;;;;;;;2.42;0.70;;;24.80;99.90;;;;;;4816226;29;20145;-87
2023/08/15 08:56:22;;;;;;;3.28;0.90;;;24.60;99.90;;;;;;4819366;29;20098;-86
2023/08/15 08:58:51;;;;;;;3.08;1.00;;;24.30;99.90;;;;;;4822746;29;20041;-86
2023/08/15 09:01:17;;;;;;;6.80;1.05;;;24.40;99.90;;;;;;4838350;29;20049;-85
2023/08/15 09:03:43;;;;;;;2.25;1.17;;;25.10;99.90;;;;;;4842221;29;20056;-88
2023/08/15 09:06:09;;;;;;;2.23;0.87;;;25.40;99.90;;;;;;4828076;29;20045;-88
2023/08/15 09:08:35;;;;;;;4.78;1.30;;;25.50;99.90;;;;;;4842411;29;20061;-87
2023/08/15 09:11:00;;;;;;;2.27;0.90;;;25.60;99.90;;;;;;4823127;29;20053;-89
2023/08/15 09:13:26;;;;;;;4.73;1.53;;;25.50;99.90;;;;;;4804210;29;20052;-87
2023/08/15 09:15:56;;;;;;;2.23;0.60;;;25.00;99.90;;;;;;4808712;29;20045;-86
2023/08/15 09:18:22;;;;;;;2.78;0.80;;;24.70;99.90;;;;;;4822547;29;20053;-85
2023/08/15 09:20:48;;;;;;;3.65;1.00;;;24.30;99.90;;;;;;4811067;29;20150;-86
2023/08/15 09:23:16;;;;;;;4.70;1.00;;;24.00;99.90;;;;;;4826584;29;20132;-89
2023/08/15 09:25:41;;;;;;;2.20;1.02;;;23.70;99.90;;;;;;4819783;29;20141;-86
2023/08/15 09:28:07;;;;;;;4.17;1.10;;;23.50;99.90;;;;;;4832789;29;20089;-86
2023/08/15 09:30:34;;;;;;;5.30;1.00;;;23.40;99.90;;;;;;4816336;29;20161;-87
2023/08/15 09:33:02;;;;;;;1.80;0.80;;;23.40;99.90;;;;;;4838704;29;20042;-87
2023/08/15 09:35:31;;;;;;;4.57;0.93;;;23.40;99.90;;;;;;4830286;29;20041;-88
2023/08/15 09:37:56;;;;;;;3.33;1.10;;;23.50;99.90;;;;;;4842122;29;20057;-87
2023/08/15 09:40:24;;;;;;;4.67;1.10;;;23.60;99.90;;;;;;4828757;29;20059;-87
2023/08/15 09:42:52;;;;;;;3.13;0.80;;;23.50;99.90;;;;;;4833110;29;20128;-87
2023/08/15 09:45:18;;;;;;;4.13;1.08;;;23.50;99.90;;;;;;4832563;29;20057;-87
2023/08/15 09:47:45;;;;;;;3.23;1.00;;;23.50;99.90;;;;;;4831522;29;20115;-86
2023/08/15 09:50:12;;;;;;;2.25;0.80;;;23.40;99.90;;;;;;4815430;29;20465;-85
2023/08/15 09:52:43;;;;;;;3.17;1.00;;;23.40;99.90;;;;;;4827809;29;20061;-88
2023/08/15 09:55:11;;;;;;;3.10;0.93;;;23.50;99.90;;;;;;4815505;29;20109;-86
2023/08/15 09:57:38;;;;;;;3.85;0.90;;;23.50;99.90;;;;;;4835591;29;20060;-88
2023/08/15 10:00:06;;;;;;;2.33;0.93;;;23.50;99.90;;;;;;4816188;29;20117;-86
2023/08/15 10:02:33;;;;;;;3.75;0.80;;;23.60;99.90;;;;;;4821366;29;20120;-85
2023/08/15 10:05:06;;;;;;;2.85;0.50;;;23.80;99.90;;;;;;4830170;29;20569;-85
2023/08/15 10:07:33;;;;;;;2.53;0.80;;;23.80;99.90;;;;;;4814537;29;20052;-88
2023/08/15 10:10:03;;;;;;;1.83;0.65;;;23.80;99.90;;;;;;4828424;29;20072;-85
2023/08/15 10:12:30;;;;;;;3.58;0.98;;;23.90;99.90;;;;;;4845053;29;20042;-87
2023/08/15 10:14:58;;;;;;;2.08;0.98;;;24.20;99.90;;;;;;4829596;29;20552;-87
2023/08/15 10:17:29;;;;;;;2.53;0.70;;;24.50;99.90;;;;;;4843790;29;20056;-87
2023/08/15 10:20:01;;;;;;;2.22;0.65;;;24.80;99.90;;;;;;4827652;29;20060;-85
2023/08/15 10:22:26;;;;;;;1.92;0.63;;;24.70;99.90;;;;;;4846422;29;20081;-92
2023/08/15 10:24:54;;;;;;;1.67;0.40;;;24.60;99.90;;;;;;4829843;29;20080;-88
2023/08/15 10:27:20;;;;;;;2.00;0.77;;;24.40;99.90;;;;;;4845299;29;20049;-85
2023/08/15 10:29:58;;;;;;;1.98;0.63;;;24.30;99.90;;;;;;4830123;29;20053;-85
2023/08/15 10:32:25;;;;;;;3.03;0.75;;;24.20;99.90;;;;;;4851176;29;20049;-84
2023/08/15 10:35:02;;;;;;;3.03;0.90;;;24.20;99.90;;;;;;4844125;29;20073;-84
2023/08/15 10:37:29;;;;;;;;;;;24.10;99.90;;;;;;4829244;29;20041;-85
2023/08/15 10:40:36;;;;;;;3.40;0.93;;;24.10;99.90;;;;;;4821563;29;19920;-84
2023/08/15 10:43:06;;;;;;;2.38;0.75;;;23.90;99.90;;;;;;4807474;29;20057;-85
2023/08/15 10:45:35;;;;;;;2.28;0.82;;;24.00;99.90;;;;;;4829622;29;20833;-87
2023/08/15 10:48:01;;;;;;;2.90;0.70;;;24.10;99.90;;;;;;4814715;29;20601;-86
2023/08/15 10:50:27;;;;;;;2.83;0.90;;;24.30;99.90;;;;;;4846466;29;20053;-88
2023/08/15 10:53:01;;;;;;;3.03;0.40;;;24.50;99.90;;;;;;4840137;29;20045;-85
2023/08/15 10:55:29;;;;;;;2.15;0.60;;;24.60;99.90;;;;;;4816604;29;20045;-88
2023/08/15 10:57:55;;;;;;;2.25;0.80;;;24.70;99.90;;;;;;4835423;29;20716;-85
2023/08/15 11:00:22;;;;;;;;;;;24.70;99.90;;;;;;4853378;29;20077;-85
2023/08/15 11:02:48;;;;;;;2.28;0.60;;;24.50;99.90;;;;;;4844436;29;19927;-85
2023/08/15 11:05:14;;;;;;;2.05;0.50;;;24.40;99.90;;;;;;4828435;29;20041;-86
2023/08/15 11:07:41;;;;;;;1.77;0.70;;;24.60;99.90;;;;;;4814226;29;20106;-86
2023/08/15 11:10:12;;;;;;;1.58;0.50;;;24.70;99.90;;;;;;4813581;29;20046;-83
2023/08/15 11:12:45;;;;;;;1.27;0.60;;;24.80;99.90;;;;;;4828281;29;20090;-87
2023/08/15 11:15:11;;;;;;;1.80;1.05;;;24.60;99.90;;;;;;4833682;29;20377;-85
2023/08/15 11:17:37;;;;;;;2.13;0.77;;;24.60;99.90;;;;;;4825243;29;20049;-86
2023/08/15 11:20:05;;;;;;;2.33;0.60;;;24.70;99.90;;;;;;4858333;29;20045;-85
2023/08/15 11:22:31;;;;;;;1.45;0.68;;;24.80;99.90;;;;;;4810867;29;20523;-86
2023/08/15 11:24:57;;;;;;;2.00;0.70;;;24.80;99.90;;;;;;4811511;29;20128;-85
2023/08/15 11:27:23;;;;;;;1.50;0.50;;;24.70;99.90;;;;;;4823890;29;20490;-85
2023/08/15 11:29:58;;;;;;;2.53;0.90;;;24.70;99.90;;;;;;4829235;29;20053;-86
2023/08/15 11:32:25;;;;;;;1.90;0.70;;;24.60;99.90;;;;;;4831793;29;20061;-85
2023/08/15 11:34:51;;;;;;;3.50;0.73;;;24.60;99.90;;;;;;4841811;29;20048;-86
2023/08/15 11:37:17;;;;;;;1.83;0.70;;;24.40;99.90;;;;;;4812993;29;20038;-85
2023/08/15 11:39:50;;;;;;;2.90;0.70;;;24.40;99.90;;;;;;4828380;29;20042;-86
2023/08/15 11:42:16;;;;;;;2.95;0.77;;;24.30;99.90;;;;;;4847977;29;20048;-85
2023/08/15 11:44:42;;;;;;;3.60;0.83;;;24.30;99.90;;;;;;4839392;29;20112;-85
2023/08/15 11:47:07;;;;;;;1.90;0.50;;;24.30;99.90;;;;;;4822437;29;20061;-87
2023/08/15 11:49:33;;;;;;;2.20;0.83;;;24.30;99.90;;;;;;4823609;29;20053;-83
2023/08/15 11:52:03;;;;;;;2.03;0.70;;;24.30;99.90;;;;;;4828320;29;20049;-85
2023/08/15 11:54:29;;;;;;;1.35;0.60;;;24.40;99.90;;;;;;4830788;29;20060;-84
2023/08/15 11:56:55;;;;;;;2.43;0.77;;;24.60;99.90;;;;;;4816441;29;20133;-82
2023/08/15 11:59:23;;;;;;;2.00;0.77;;;24.70;99.90;;;;;;4828770;29;20045;-84
2023/08/15 12:01:49;;;;;;;1.45;0.70;;;24.90;99.90;;;;;;4813381;29;20037;-83
2023/08/15 12:04:18;;;;;;;4.03;0.88;;;24.80;99.90;;;;;;4842826;29;20050;-86
2023/08/15 12:06:44;;;;;;;2.53;0.80;;;24.70;99.90;;;;;;4842811;29;20056;-87
2023/08/15 12:09:12;;;;;;;1.95;0.70;;;24.70;99.90;;;;;;4827701;29;20049;-85
2023/08/15 12:11:37;;;;;;;2.58;0.80;;;24.70;99.90;;;;;;4829302;29;20464;-85
2023/08/15 12:14:03;;;;;;;2.33;0.70;;;24.70;99.90;;;;;;4795475;29;20148;-84
2023/08/15 12:16:30;;;;;;;2.95;0.65;;;24.60;99.90;;;;;;4797475;29;20068;-86
2023/08/15 12:18:56;;;;;;;;;;;24.60;99.90;;;;;;4839807;29;20037;-84
2023/08/15 12:21:22;;;;;;;2.85;0.80;;;24.50;99.90;;;;;;4834376;29;19923;-84
2023/08/15 12:23:48;;;;;;;3.33;1.00;;;24.50;99.90;;;;;;4843202;29;20078;-86
2023/08/15 12:26:14;;;;;;;2.40;0.80;;;24.40;99.90;;;;;;4853772;29;20045;-87
2023/08/15 12:28:40;;;;;;;1.60;0.60;;;24.50;99.90;;;;;;4834586;29;20053;-84
2023/08/15 12:31:06;;;;;;;1.63;0.70;;;24.50;99.90;;;;;;4828785;29;20041;-83
2023/08/15 12:33:35;;;;;;;1.97;0.80;;;24.50;99.90;;;;;;4853619;29;20045;-84
2023/08/15 12:36:02;;;;;;;1.77;0.60;;;24.50;99.90;;;;;;4810657;29;20375;-87
2023/08/15 12:38:28;;;;;;;2.10;0.80;;;24.40;99.90;;;;;;4849458;29;20041;-86
2023/08/15 12:40:54;;;;;;;2.63;0.90;;;24.50;99.90;;;;;;4830328;29;20042;-83
2023/08/15 12:43:20;;;;;;;2.50;0.80;;;24.60;99.90;;;;;;4826230;29;20592;-87
2023/08/15 12:45:46;;;;;;;3.37;0.90;;;24.50;99.90;;;;;;4801977;29;20494;-86